Flight Track Log - Related Links

Times and Time Zones

All times are in EST time to prevent confusion due to time zone crossing. See the EJA831 flight status page for this flight to view local times or setup timezone preferences in your user account.

Time Position Orientation Groundspeed Altitude Reporting Facility
EST Latitude Longitude Course Direction KTS MPH feet Rate Location/Type
Sun 01:08:53 PM 39.1072 -96.6928 205° Southwest 200 230 3,800  Level Kansas City Center
Sun 01:09:55 PM 39.0508 -96.7272 205° Southwest 227 261 8,800 4,512 Climbing Kansas City Center
Sun 01:10:58 PM 38.9967 -96.7878 221° Southwest 258 297 13,200 3,677 Climbing Kansas City Center
Sun 01:11:59 PM 38.9672 -96.8725 246° West 282 325 16,400 3,000 Climbing Kansas City Center
Sun 01:13:00 PM 38.9317 -96.9739 246° West 308 354 19,300 2,736 Climbing Kansas City Center
Sun 01:14:04 PM 38.8856 -97.1044 246° West 333 383 22,100 2,400 Climbing Kansas City Center
Sun 01:15:05 PM 38.8458 -97.2172 246° West 346 398 24,300 1,920 Climbing Kansas City Center
Sun 01:16:09 PM 38.8050 -97.3322 246° West 353 406 26,100 1,790 Climbing Kansas City Center
Sun 01:17:09 PM 38.7625 -97.4525 246° West 367 422 28,000 1,839 Climbing Kansas City Center
Sun 01:18:13 PM 38.7147 -97.5878 246° West 378 435 29,900 1,694 Climbing Kansas City Center
Sun 01:19:13 PM 38.6739 -97.6989 245° Southwest 383 441 31,500 1,645 Climbing Kansas City Center
Sun 01:20:17 PM 38.6217 -97.8456 246° West 379 436 33,300 1,210 Climbing Kansas City Center
Sun 01:21:17 PM 38.5772 -97.9694 245° Southwest 384 442 34,000 344 Climbing Kansas City Center
Sun 01:22:19 PM 38.5317 -98.0956 245° Southwest 392 451 34,000  Level Kansas City Center
Sun 01:23:23 PM 38.4864 -98.2183 245° Southwest 386 444 34,000  Level Kansas City Center
Sun 01:24:24 PM 38.4419 -98.3414 245° Southwest 384 442 34,000  Level Kansas City Center
Sun 01:25:27 PM 38.3881 -98.4875 245° Southwest 382 440 34,000  Level Kansas City Center
Sun 01:26:29 PM 38.3419 -98.6111 245° Southwest 387 445 34,000  Level Kansas City Center
Sun 01:27:29 PM 38.2967 -98.7356 245° Southwest 389 448 34,000  Level Kansas City Center
Sun 01:28:30 PM 38.2503 -98.8589 244° Southwest 388 447 34,000  Level Kansas City Center
Sun 01:29:34 PM 38.2050 -98.9842 245° Southwest 389 448 34,000  Level Kansas City Center
Sun 01:30:37 PM 38.1586 -99.1114 245° Southwest 394 453 34,000  Level Kansas City Center
Sun 01:31:38 PM 38.0994 -99.2639 244° Southwest 400 460 34,000  Level Kansas City Center
Sun 01:32:41 PM 38.0511 -99.3931 245° Southwest 405 466 34,000  Level Kansas City Center
Sun 01:33:42 PM 38.0022 -99.5181 244° Southwest 408 470 34,000  Level Kansas City Center
Sun 01:34:42 PM 37.9467 -99.6644 244° Southwest 411 473 34,000  Level Kansas City Center
Sun 01:35:46 PM 37.8983 -99.7906 244° Southwest 414 476 34,000  Level Kansas City Center
Sun 01:36:47 PM 37.8408 -99.9353 243° Southwest 413 475 34,000 192 Level Kansas City Center
Sun 01:37:51 PM 37.7928 -100.0603 244° Southwest 413 475 34,400 726 Climbing Kansas City Center
Sun 01:38:51 PM 37.7364 -100.2075 244° Southwest 414 476 35,500 774 Climbing Kansas City Center
Sun 01:39:55 PM 37.6881 -100.3319 244° Southwest 413 475 36,000 240 Climbing Kansas City Center
Sun 01:40:56 PM 37.6314 -100.4739 243° Southwest 406 467 36,000  Level Kansas City Center
Sun 01:41:59 PM 37.5825 -100.6008 244° Southwest 403 464 36,000  Level Kansas City Center
Sun 01:43:00 PM 37.5317 -100.7275 243° Southwest 405 466 36,000  Level Kansas City Center
Sun 01:44:01 PM 37.4778 -100.8622 243° Southwest 407 468 36,000  Level Kansas City Center
Sun 01:45:05 PM 37.4269 -100.9875 243° Southwest 413 475 36,000  Level Kansas City Center
Sun 01:46:06 PM 37.3700 -101.1317 244° Southwest 411 473 36,000  Level Kansas City Center
Sun 01:47:09 PM 37.3206 -101.2531 243° Southwest 408 470 36,000  Level Kansas City Center
Sun 01:48:09 PM 37.2631 -101.3953 243° Southwest 408 470 36,000  Level Kansas City Center
Sun 01:49:13 PM 37.2136 -101.5169 243° Southwest 409 471 36,000  Level Kansas City Center
Sun 01:50:14 PM 37.1644 -101.6392 243° Southwest 409 471 36,000  Level Kansas City Center
Sun 01:51:15 PM 37.1061 -101.7808 243° Southwest 410 472 36,000  Level Kansas City Center
Sun 01:52:19 PM 37.0572 -101.9014 243° Southwest 407 468 36,000  Level Kansas City Center
Sun 01:53:19 PM 36.9983 -102.0406 242° Southwest 405 466 36,000  Level Kansas City Center
Sun 01:54:24 PM 36.9492 -102.1608 243° Southwest 406 467 36,000  Level Kansas City Center
Sun 01:55:24 PM 36.8906 -102.2994 242° Southwest 405 466 36,000  Level Kansas City Center
Sun 01:56:25 PM 36.8414 -102.4194 243° Southwest 405 466 36,000 -288 Level Kansas City Center
Sun 01:57:29 PM 36.7842 -102.5558 242° Southwest 400 460 35,400 -472 Descending Kansas City Center
Sun 01:58:32 PM 36.7353 -102.6744 243° Southwest 400 460 35,000 -641 Descending Kansas City Center
Sun 01:59:40 PM 36.6708 -102.8286 243° Southwest 411 473 34,000 -458 Descending Albuquerque Center
Sun 02:00:43 PM 36.6178 -102.9522 242° Southwest 413 475 34,000  Level Albuquerque Center
Sun 02:01:45 PM 36.5639 -103.0797 242° Southwest 413 475 34,000  Level Albuquerque Center
Sun 02:02:47 PM 36.5017 -103.2250 242° Southwest 408 470 34,000  Level Albuquerque Center
Sun 02:03:49 PM 36.4481 -103.3500 242° Southwest 407 468 34,000  Level Albuquerque Center
Sun 02:04:51 PM 36.3939 -103.4739 242° Southwest 406 467 34,000  Level Albuquerque Center
Sun 02:05:53 PM 36.3394 -103.6006 242° Southwest 410 472 34,000  Level Albuquerque Center
Sun 02:06:55 PM 36.2861 -103.7253 242° Southwest 408 470 34,000  Level Albuquerque Center
Sun 02:07:57 PM 36.2322 -103.8494 242° Southwest 407 468 34,000  Level Albuquerque Center
Sun 02:08:59 PM 36.1783 -103.9706 241° Southwest 402 463 34,000  Level Albuquerque Center
Sun 02:10:01 PM 36.1292 -104.1153 247° West 390 449 34,000  Level Albuquerque Center
Sun 02:11:03 PM 36.0975 -104.2406 253° West 381 438 34,000  Level Albuquerque Center
Sun 02:12:05 PM 36.0656 -104.3664 253° West 381 438 34,000  Level Albuquerque Center
Sun 02:13:07 PM 36.0333 -104.4928 253° West 382 440 34,000  Level Albuquerque Center
Sun 02:14:09 PM 36.0011 -104.6192 253° West 384 442 34,000  Level Albuquerque Center
Sun 02:15:11 PM 35.9697 -104.7461 253° West 385 443 34,000 -194 Level Albuquerque Center
Sun 02:16:13 PM 35.9303 -104.8947 252° West 388 447 33,600 -1,306 Descending Albuquerque Center
Sun 02:17:15 PM 35.8983 -105.0183 252° West 382 440 31,300 -2,419 Descending Albuquerque Center
Sun 02:18:17 PM 35.8656 -105.1425 252° West 379 436 28,600 -2,952 Descending Albuquerque Center
Sun 02:19:19 PM 35.8339 -105.2642 252° West 374 430 25,200 -3,366 Descending Albuquerque Center
Sun 02:20:20 PM 35.8036 -105.3831 253° West 366 421 21,700 -3,366 Descending Albuquerque Center
Sun 02:21:22 PM 35.7717 -105.5025 252° West 365 420 18,300 -2,903 Descending Albuquerque Center
Sun 02:22:24 PM 35.7383 -105.6275 252° West 367 422 15,700 -2,081 Descending Albuquerque Center
Sun 02:23:26 PM 35.6983 -105.7406 246° West 368 423 14,000 -1,839 Descending Albuquerque Center
Sun 02:24:28 PM 35.6586 -105.8467 245° Southwest 346 398 11,900 -2,274 Descending Albuquerque Center
Sun 02:25:30 PM 35.6047 -105.9497 237° Southwest 313 360 9,300 -1,935 Descending Albuquerque Center
Sun 02:26:32 PM 35.5633 -106.0269 237° Southwest 274 315 7,900 -1,016 Descending Albuquerque Center
Sun 02:27:34 PM 35.5689 -106.0758 278° West 196 226 7,200 -677 Descending Albuquerque Center
Sun 02:28:36 PM 35.5986 -106.0842 347° North 140 161 6,500 -677 Descending Albuquerque Center

Login

Don't have an account? Register now (free) for customized features, flight alerts, and more!